createdAt,value
2023-04-16T00:34:03.215Z,101296.00
2023-04-16T00:39:06.438Z,101293.00
2023-04-16T00:44:09.014Z,101291.00
2023-04-16T00:49:15.440Z,101293.00
2023-04-16T00:54:18.324Z,101302.00
2023-04-16T00:59:21.352Z,101305.00
2023-04-16T01:04:25.345Z,101298.00
2023-04-16T01:09:27.761Z,101308.00
2023-04-16T01:14:30.308Z,101301.00
2023-04-16T01:19:36.765Z,101296.00
2023-04-16T01:24:41.155Z,101295.00
2023-04-16T01:29:46.079Z,101298.00
2023-04-16T01:34:53.329Z,101301.00
2023-04-16T01:39:58.281Z,101302.00
2023-04-16T01:45:00.783Z,101307.00
2023-04-16T01:50:05.121Z,101315.00
2023-04-16T01:55:09.753Z,101306.00
2023-04-16T02:00:12.785Z,101314.00
2023-04-16T02:05:24.270Z,101306.00
2023-04-16T02:10:28.243Z,101311.00
2023-04-16T02:15:31.008Z,101308.00
2023-04-16T02:20:33.666Z,101316.00
2023-04-16T02:25:41.089Z,101317.00
2023-04-16T02:30:45.446Z,101326.00
2023-04-16T02:35:49.674Z,101319.00
2023-04-16T02:40:53.665Z,101322.00
2023-04-16T02:45:56.229Z,101328.00
2023-04-16T02:50:58.732Z,101324.00
2023-04-16T02:56:02.619Z,101330.00
2023-04-16T03:01:05.408Z,101339.00
2023-04-16T03:06:08.024Z,101332.00
2023-04-16T03:11:11.832Z,101330.00
2023-04-16T03:16:14.260Z,101345.00
2023-04-16T03:21:16.699Z,101346.00
2023-04-16T03:26:20.700Z,101345.00
2023-04-16T03:31:25.072Z,101347.00
2023-04-16T03:36:28.581Z,101360.00
2023-04-16T03:41:33.829Z,101359.00
2023-04-16T03:46:36.462Z,101362.00
2023-04-16T03:51:42.164Z,101375.00
2023-04-16T03:56:46.092Z,101373.00
2023-04-16T04:01:48.756Z,101383.00
2023-04-16T04:06:51.595Z,101387.00
2023-04-16T04:11:55.598Z,101387.00
2023-04-16T04:17:01.269Z,101389.00
2023-04-16T04:22:04.170Z,101400.00
2023-04-16T04:27:08.190Z,101394.00
2023-04-16T04:32:13.688Z,101400.00
2023-04-16T04:37:16.290Z,101398.00
2023-04-16T04:42:21.895Z,101410.00
2023-04-16T04:47:24.763Z,101412.00
2023-04-16T04:52:29.611Z,101407.00
2023-04-16T04:57:33.609Z,101416.00
2023-04-16T05:02:37.876Z,101418.00
2023-04-16T05:07:40.355Z,101421.00
2023-04-16T05:12:44.186Z,101421.00
2023-04-16T05:17:47.116Z,101430.00
2023-04-16T05:22:50.059Z,101431.00
2023-04-16T05:27:53.856Z,101438.00
2023-04-16T05:32:56.367Z,101436.00
2023-04-16T05:37:58.832Z,101436.00
2023-04-16T05:43:06.046Z,101443.00
2023-04-16T05:48:10.846Z,101445.00
2023-04-16T05:53:13.370Z,101451.00
2023-04-16T05:58:17.107Z,101456.00
2023-04-16T06:03:19.612Z,101448.00
2023-04-16T06:08:22.071Z,101456.00
2023-04-16T06:13:26.055Z,101465.00
2023-04-16T06:18:31.142Z,101472.00
2023-04-16T06:23:36.253Z,101474.00
2023-04-16T06:28:40.130Z,101479.00
2023-04-16T06:33:42.565Z,101478.00
2023-04-16T06:38:49.548Z,101471.00
2023-04-16T06:43:53.510Z,101480.00
2023-04-16T06:48:55.980Z,101474.00
2023-04-16T06:53:58.551Z,101480.00
2023-04-16T06:59:02.537Z,101493.00
2023-04-16T07:04:08.006Z,101486.00
2023-04-16T07:09:11.150Z,101494.00
2023-04-16T07:14:15.458Z,101488.00
2023-04-16T07:19:17.963Z,101494.00
2023-04-16T07:24:20.590Z,101494.00
2023-04-16T07:29:24.565Z,101497.00
2023-04-16T07:34:29.907Z,101500.00
2023-04-16T07:39:35.598Z,101497.00
2023-04-16T07:44:39.678Z,101506.00
2023-04-16T07:49:43.207Z,101513.00
2023-04-16T07:54:48.647Z,101512.00
2023-04-16T07:59:55.573Z,101516.00
2023-04-16T08:04:58.081Z,101503.00
2023-04-16T08:10:00.562Z,101505.00
2023-04-16T08:15:05.630Z,101514.00
2023-04-16T08:20:09.889Z,101519.00
2023-04-16T08:25:16.351Z,101519.00
2023-04-16T08:30:20.783Z,101523.00
2023-04-16T08:35:23.240Z,101532.00
2023-04-16T08:40:28.866Z,101540.00
2023-04-16T08:45:36.729Z,101542.00
2023-04-16T08:50:40.779Z,101551.00
2023-04-16T08:55:48.933Z,101555.00
2023-04-16T09:00:53.627Z,101557.00
2023-04-16T09:05:58.812Z,101559.00
2023-04-16T09:11:01.575Z,101571.00
2023-04-16T09:16:07.739Z,101568.00
2023-04-16T09:21:10.783Z,101582.00
2023-04-16T09:26:13.355Z,101593.00
2023-04-16T09:31:19.416Z,101592.00
2023-04-16T09:36:23.718Z,101595.00
2023-04-16T09:41:28.867Z,101588.00
2023-04-16T09:46:36.657Z,101598.00
2023-04-16T09:51:41.530Z,101598.00
2023-04-16T09:56:46.465Z,101599.00
2023-04-16T10:01:51.032Z,101598.00
2023-04-16T10:07:04.424Z,101609.00
2023-04-16T10:12:07.935Z,101623.00
2023-04-16T10:17:12.317Z,101624.00
2023-04-16T10:22:15.484Z,101632.00
2023-04-16T10:27:19.321Z,101641.00
2023-04-16T10:32:26.122Z,101638.00
2023-04-16T10:37:32.343Z,101619.00
2023-04-16T10:42:34.865Z,101637.00
2023-04-16T10:47:42.645Z,101631.00
2023-04-16T10:52:45.884Z,101640.00
2023-04-16T10:57:50.227Z,101643.00
2023-04-16T11:02:55.540Z,101640.00
2023-04-16T11:08:18.123Z,101649.00
2023-04-16T11:13:20.950Z,101648.00
2023-04-16T11:18:25.998Z,101665.00
2023-04-16T11:23:28.810Z,101663.00
2023-04-16T11:28:34.836Z,101665.00
2023-04-16T11:33:38.801Z,101674.00
2023-04-16T11:38:41.518Z,101677.00
2023-04-16T11:43:43.977Z,101676.00
2023-04-16T11:48:49.534Z,101679.00
2023-04-16T11:53:53.752Z,101688.00
2023-04-16T11:59:11.243Z,101684.00
2023-04-16T12:04:17.501Z,101686.00
2023-04-16T12:09:24.481Z,101696.00
2023-04-16T12:14:27.033Z,101695.00
2023-04-16T12:19:30.814Z,101691.00
2023-04-16T12:24:35.766Z,101691.00
2023-04-16T12:29:38.156Z,101698.00
2023-04-16T12:34:51.900Z,101694.00
2023-04-16T12:39:54.573Z,101708.00
2023-04-16T12:44:57.096Z,101707.00
2023-04-16T12:50:01.480Z,101710.00
2023-04-16T12:55:04.326Z,101710.00
2023-04-16T13:00:08.333Z,101704.00
2023-04-16T13:05:12.452Z,101703.00
2023-04-16T13:10:14.864Z,101715.00
2023-04-16T13:15:17.376Z,101712.00
2023-04-16T13:20:23.229Z,101719.00
2023-04-16T13:25:26.837Z,101711.00
2023-04-16T13:30:29.362Z,101717.00
2023-04-16T13:35:36.619Z,101719.00
2023-04-16T13:40:39.086Z,101719.00
2023-04-16T13:45:41.600Z,101723.00
2023-04-16T13:50:45.771Z,101720.00
2023-04-16T13:55:48.214Z,101722.00
2023-04-16T14:00:51.793Z,101713.00
2023-04-16T14:05:55.721Z,101727.00
2023-04-16T14:10:59.280Z,101720.00
2023-04-16T14:16:03.477Z,101712.00
2023-04-16T14:21:07.428Z,101721.00
2023-04-16T14:26:12.724Z,101730.00
2023-04-16T14:31:15.211Z,101724.00
2023-04-16T14:36:19.214Z,101740.00
2023-04-16T14:41:23.060Z,101735.00
2023-04-16T14:46:25.660Z,101737.00
2023-04-16T14:51:29.956Z,101743.00
2023-04-16T14:56:32.572Z,101740.00
2023-04-16T15:01:35.083Z,101740.00
2023-04-16T15:06:40.040Z,101744.00
2023-04-16T15:11:42.569Z,101746.00
2023-04-16T15:16:46.546Z,101749.00
2023-04-16T15:21:50.538Z,101755.00
2023-04-16T15:26:53.045Z,101752.00
2023-04-16T15:31:56.228Z,101758.00
2023-04-16T15:37:00.143Z,101763.00
2023-04-16T15:42:07.197Z,101769.00
2023-04-16T15:47:10.051Z,101764.00
2023-04-16T15:52:14.125Z,101771.00
2023-04-16T15:57:16.692Z,101778.00
2023-04-16T16:02:19.240Z,101786.00
2023-04-16T16:07:23.265Z,101784.00
2023-04-16T16:12:28.573Z,101800.00
2023-04-16T16:17:31.122Z,101797.00
2023-04-16T16:22:34.952Z,101804.00
2023-04-16T16:27:37.354Z,101809.00
2023-04-16T16:32:39.899Z,101804.00
2023-04-16T16:37:43.693Z,101805.00
2023-04-16T16:42:46.100Z,101805.00
2023-04-16T16:47:51.104Z,101810.00
2023-04-16T16:52:58.759Z,101823.00
2023-04-16T16:58:01.303Z,101816.00
2023-04-16T17:03:03.929Z,101828.00
2023-04-16T17:08:10.752Z,101818.00
2023-04-16T17:13:16.305Z,101835.00
2023-04-16T17:18:21.602Z,101837.00
2023-04-16T17:23:25.644Z,101844.00
2023-04-16T17:28:31.033Z,101840.00
2023-04-16T17:33:33.729Z,101847.00
2023-04-16T17:38:38.030Z,101858.00
2023-04-16T17:43:40.406Z,101859.00
2023-04-16T17:48:43.512Z,101856.00
2023-04-16T17:53:47.354Z,101877.00
2023-04-16T17:58:49.830Z,101875.00
2023-04-16T18:03:52.552Z,101891.00
2023-04-16T18:08:56.536Z,101883.00
2023-04-16T18:14:01.599Z,101885.00
2023-04-16T18:19:04.047Z,101890.00
2023-04-16T18:24:09.113Z,101898.00
2023-04-16T18:29:12.477Z,101902.00
2023-04-16T18:34:16.105Z,101910.00
2023-04-16T18:39:20.502Z,101908.00
2023-04-16T18:44:23.014Z,101912.00
2023-04-16T18:49:25.926Z,101916.00
2023-04-16T18:54:29.974Z,101921.00
2023-04-16T18:59:32.735Z,101928.00
2023-04-16T19:04:35.297Z,101926.00
2023-04-16T19:09:39.237Z,101913.00
2023-04-16T19:14:41.816Z,101920.00
2023-04-16T19:19:44.345Z,101914.00
2023-04-16T19:24:48.212Z,101914.00
2023-04-16T19:29:50.687Z,101915.00
2023-04-16T19:34:53.213Z,101907.00
2023-04-16T19:39:59.838Z,101915.00
2023-04-16T19:45:02.420Z,101913.00
2023-04-16T19:50:08.918Z,101910.00
2023-04-16T19:55:12.950Z,101909.00
2023-04-16T20:00:16.534Z,101916.00
2023-04-16T20:05:19.140Z,101923.00
2023-04-16T20:10:23.862Z,101914.00
2023-04-16T20:15:26.304Z,101918.00
2023-04-16T20:20:28.824Z,101919.00
2023-04-16T20:25:32.693Z,101915.00
2023-04-16T20:30:35.266Z,101924.00
2023-04-16T20:35:40.246Z,101927.00
2023-04-16T20:40:44.984Z,101933.00
2023-04-16T20:45:47.542Z,101929.00
2023-04-16T20:50:49.963Z,101935.00
2023-04-16T20:55:53.998Z,101941.00
2023-04-16T21:00:58.059Z,101942.00
2023-04-16T21:06:00.527Z,101947.00
2023-04-16T21:11:07.301Z,101949.00
2023-04-16T21:16:10.004Z,101955.00
2023-04-16T21:21:12.505Z,101965.00
2023-04-16T21:26:19.391Z,101961.00
2023-04-16T21:31:21.931Z,101967.00
2023-04-16T21:36:24.383Z,101957.00
2023-04-16T21:41:28.274Z,101961.00
2023-04-16T21:46:33.260Z,101966.00
2023-04-16T21:51:35.772Z,101974.00
2023-04-16T21:56:39.623Z,101974.00
2023-04-16T22:01:44.593Z,101973.00
2023-04-16T22:06:46.974Z,101971.00
2023-04-16T22:11:53.137Z,101967.00
2023-04-16T22:16:55.755Z,101963.00
2023-04-16T22:21:58.341Z,101966.00
2023-04-16T22:27:02.478Z,101976.00
2023-04-16T22:32:05.793Z,101989.00
2023-04-16T22:37:11.175Z,101980.00
2023-04-16T22:42:17.953Z,101982.00
2023-04-16T22:47:20.386Z,101981.00
2023-04-16T22:52:22.821Z,101987.00
2023-04-16T22:57:26.715Z,101982.00
2023-04-16T23:02:29.474Z,101982.00
2023-04-16T23:07:31.966Z,101991.00
2023-04-16T23:12:35.856Z,101990.00
2023-04-16T23:17:38.303Z,101994.00
2023-04-16T23:22:43.717Z,101987.00
2023-04-16T23:27:47.560Z,101992.00
2023-04-16T23:32:50.150Z,101995.00
2023-04-16T23:37:52.763Z,101982.00
2023-04-16T23:42:56.634Z,101981.00
2023-04-16T23:47:59.226Z,101990.00
2023-04-16T23:53:01.660Z,101991.00
2023-04-16T23:58:05.490Z,101986.00
